Time;durP1;ratioP1;P1;durP2;ratioP2;P2;SDS_P1;SDS_P2;PMS_P1;PMS_P2;Temp;Humidity;BMP_temperature;BMP_pressure;BME280_temperature;BME280_humidity;BME280_pressure;Samples;Min_cycle;Max_cycle;Signal;HPM_P1;HPM_P2
2022/07/02 00:00:23;;;;;;;7.37;5.17;;;;;;;21.53;60.90;100858.64;1752384;80;21549;-47
2022/07/02 00:02:52;;;;;;;7.83;4.92;;;;;;;21.57;60.79;100868.47;1751131;80;21074;-48
2022/07/02 00:05:22;;;;;;;8.30;4.80;;;;;;;21.55;60.99;100865.97;1751588;80;21134;-48
2022/07/02 00:07:50;;;;;;;7.58;4.35;;;;;;;21.56;61.26;100873.00;1740358;80;21023;-48
2022/07/02 00:10:19;;;;;;;8.98;4.78;;;;;;;21.55;61.02;100865.15;1749518;80;21102;-48
2022/07/02 00:12:46;;;;;;;8.23;4.85;;;;;;;21.54;61.05;100858.97;1735209;80;21511;-47
2022/07/02 00:15:14;;;;;;;9.70;5.03;;;;;;;21.49;61.17;100862.70;1755629;80;21126;-47
2022/07/02 00:17:41;;;;;;;7.42;4.87;;;;;;;21.44;61.37;100872.59;1738272;80;21177;-47
2022/07/02 00:20:10;;;;;;;7.42;4.85;;;;;;;21.40;61.76;100881.16;1751301;80;21070;-47
2022/07/02 00:22:36;;;;;;;7.33;4.78;;;;;;;21.39;61.99;100877.66;1749191;80;21054;-48
2022/07/02 00:25:05;;;;;;;7.83;4.92;;;;;;;21.41;62.22;100880.98;1754570;80;21026;-48
2022/07/02 00:27:32;;;;;;;6.53;4.05;;;;;;;21.42;62.28;100881.83;1746692;80;21000;-47
2022/07/02 00:30:03;;;;;;;7.55;5.12;;;;;;;21.39;62.33;100868.80;1748149;80;21229;-47
2022/07/02 00:32:33;;;;;;;7.95;4.97;;;;;;;21.37;62.58;100880.17;1748203;81;21042;-48
2022/07/02 00:35:10;;;;;;;7.83;5.22;;;;;;;21.32;62.59;100880.74;1749439;80;21113;-47
2022/07/02 00:37:37;;;;;;;7.92;5.22;;;;;;;21.29;62.75;100881.10;1748613;81;21090;-48
2022/07/02 00:40:06;;;;;;;7.60;5.35;;;;;;;21.24;62.89;100886.16;1752040;81;21063;-48
2022/07/02 00:44:05;;;;;;;8.78;5.60;;;;;;;21.22;62.89;100880.99;1792321;79;22568;-47
2022/07/02 00:46:34;;;;;;;8.08;5.15;;;;;;;21.20;62.62;100880.83;1749661;81;21549;-47
2022/07/02 00:49:02;;;;;;;8.90;5.25;;;;;;;21.19;62.67;100880.52;1761914;80;22121;-47
2022/07/02 00:51:28;;;;;;;7.40;5.12;;;;;;;21.21;62.65;100883.84;1718398;82;21136;-47
2022/07/02 00:53:55;;;;;;;8.65;5.80;;;;;;;21.20;62.72;100880.34;1713188;82;21005;-48
2022/07/02 00:56:21;;;;;;;6.92;5.00;;;;;;;21.19;62.76;100884.02;1703242;82;21564;-47
2022/07/02 00:58:48;;;;;;;6.75;5.08;;;;;;;21.15;62.77;100884.07;1708142;82;20951;-47
2022/07/02 01:01:14;;;;;;;12.37;5.92;;;;;;;21.09;62.90;100892.30;1712070;82;21251;-47
2022/07/02 01:03:42;;;;;;;8.30;6.00;;;;;;;21.05;63.08;100898.20;1716513;82;21070;-47
2022/07/02 01:06:10;;;;;;;9.60;5.62;;;;;;;21.00;63.20;100887.17;1716972;83;21065;-47
2022/07/02 01:11:22;;;;;;;6.85;4.85;;;;;;;20.96;63.60;100892.91;1714880;82;21062;-48
2022/07/02 01:13:48;;;;;;;8.68;4.70;;;;;;;20.99;63.67;100900.25;1720889;83;21144;-48
2022/07/02 01:16:15;;;;;;;6.92;4.90;;;;;;;21.01;64.00;100904.39;1717792;82;21003;-48
2022/07/02 01:18:42;;;;;;;8.48;5.20;;;;;;;21.03;64.24;100902.88;1718445;82;21043;-48
2022/07/02 01:21:09;;;;;;;9.65;5.83;;;;;;;21.02;64.70;100910.59;1714945;82;21343;-48
2022/07/02 01:23:35;;;;;;;10.40;5.90;;;;;;;20.98;65.22;100912.80;1699984;82;21030;-48
2022/07/02 01:26:04;;;;;;;11.00;6.37;;;;;;;20.96;65.31;100917.47;1711363;82;21082;-48
2022/07/02 01:28:31;;;;;;;8.33;5.60;;;;;;;20.95;65.18;100923.34;1714178;82;21105;-48
2022/07/02 01:30:57;;;;;;;9.25;5.83;;;;;;;20.92;65.07;100919.67;1720074;81;21478;-48
2022/07/02 01:33:24;;;;;;;8.65;5.25;;;;;;;20.91;65.10;100926.53;1719399;83;21108;-48
2022/07/02 01:35:50;;;;;;;7.42;5.37;;;;;;;20.90;65.02;100927.05;1699996;82;21082;-48
2022/07/02 01:38:17;;;;;;;9.45;6.10;;;;;;;20.89;65.11;100924.55;1697592;82;21122;-48
2022/07/02 01:40:43;;;;;;;7.12;5.60;;;;;;;20.85;65.19;100929.42;1718038;82;21067;-48
2022/07/02 01:43:10;;;;;;;8.48;5.35;;;;;;;20.82;65.43;100935.64;1705404;82;21053;-48
2022/07/02 01:45:37;;;;;;;6.92;5.37;;;;;;;20.83;65.78;100939.95;1702164;82;21780;-48
2022/07/02 01:48:04;;;;;;;11.93;5.45;;;;;;;20.83;66.02;100936.80;1711834;82;21549;-48
2022/07/02 01:50:35;;;;;;;15.80;5.70;;;;;;;20.85;66.13;100940.12;1746058;81;21106;-48
2022/07/02 01:53:02;;;;;;;7.17;4.33;;;;;;;20.90;66.16;100939.60;1692377;82;21054;-48
2022/07/02 01:55:29;;;;;;;9.93;5.03;;;;;;;20.93;65.95;100934.73;1710440;83;21062;-48
2022/07/02 01:57:56;;;;;;;8.40;4.83;;;;;;;21.01;65.58;100937.83;1709731;82;20987;-48
2022/07/02 02:00:22;;;;;;;6.90;4.35;;;;;;;21.03;65.31;100941.19;1706582;83;21675;-48
2022/07/02 02:02:49;;;;;;;11.55;4.62;;;;;;;21.03;64.99;100940.33;1696227;82;21137;-49
2022/07/02 02:05:15;;;;;;;8.68;4.80;;;;;;;21.03;64.82;100947.02;1691309;83;21680;-49
2022/07/02 02:07:42;;;;;;;17.30;5.65;;;;;;;21.02;64.75;100946.72;1679106;83;21118;-49
2022/07/02 02:10:09;;;;;;;8.80;4.90;;;;;;;21.05;63.97;100950.38;1696598;84;21094;-48
2022/07/02 02:12:35;;;;;;;6.83;4.47;;;;;;;21.07;63.77;100953.19;1695310;82;21075;-49
2022/07/02 02:15:05;;;;;;;6.45;3.65;;;;;;;21.08;63.51;100958.87;1707367;82;21156;-48
2022/07/02 02:17:32;;;;;;;12.82;4.30;;;;;;;21.12;63.34;100953.99;1706460;83;21062;-48
2022/07/02 02:19:59;;;;;;;6.25;3.77;;;;;;;21.17;62.71;100958.30;1703843;84;21092;-48
2022/07/02 02:22:25;;;;;;;6.05;3.50;;;;;;;21.18;62.47;100958.61;1703022;83;21668;-48
2022/07/02 02:24:51;;;;;;;7.03;3.85;;;;;;;21.14;61.88;100955.47;1703760;83;21071;-48
2022/07/02 02:27:18;;;;;;;4.97;3.30;;;;;;;21.10;61.09;100954.17;1687613;82;21098;-49
2022/07/02 02:29:44;;;;;;;9.45;3.87;;;;;;;21.08;60.48;100950.84;1705528;84;21059;-49
2022/07/02 02:32:11;;;;;;;6.72;3.42;;;;;;;21.07;60.11;100957.20;1695509;83;21046;-48
2022/07/02 02:34:39;;;;;;;9.65;3.37;;;;;;;21.05;59.92;100958.41;1694355;84;22229;-48
2022/07/02 02:37:05;;;;;;;7.53;3.42;;;;;;;21.02;59.70;100958.75;1698470;83;21062;-48
2022/07/02 02:39:31;;;;;;;7.50;3.92;;;;;;;20.98;59.80;100960.95;1685827;84;21146;-48
2022/07/02 02:41:58;;;;;;;6.60;4.08;;;;;;;20.96;59.69;100957.11;1696837;83;21070;-49
2022/07/02 02:44:25;;;;;;;7.35;3.90;;;;;;;20.96;59.47;100953.58;1701724;82;21008;-48
2022/07/02 02:46:52;;;;;;;6.15;3.85;;;;;;;20.96;59.40;100959.79;1694554;82;21087;-49
2022/07/02 02:49:18;;;;;;;5.70;3.40;;;;;;;20.95;59.77;100972.83;1701097;84;21448;-48
2022/07/02 02:51:45;;;;;;;6.72;3.30;;;;;;;20.92;59.83;100970.50;1699123;83;21137;-49
2022/07/02 02:54:12;;;;;;;5.00;3.22;;;;;;;20.93;60.13;100977.53;1694643;84;21063;-48
2022/07/02 02:56:40;;;;;;;6.67;3.27;;;;;;;20.99;59.95;100979.98;1705361;83;21087;-48
2022/07/02 02:59:06;;;;;;;6.45;4.00;;;;;;;21.03;59.87;100975.97;1685504;84;21071;-48
2022/07/02 03:01:33;;;;;;;7.72;3.60;;;;;;;21.07;59.73;100977.27;1699799;83;21634;-49
2022/07/02 03:04:00;;;;;;;5.35;3.27;;;;;;;21.09;59.31;100980.59;1700684;82;21143;-48
2022/07/02 03:06:27;;;;;;;5.33;3.30;;;;;;;21.11;59.47;100984.42;1737566;80;21066;-48
2022/07/02 03:08:53;;;;;;;6.72;3.75;;;;;;;21.12;59.42;100983.43;1706421;82;21050;-49
2022/07/02 03:11:20;;;;;;;7.95;3.83;;;;;;;21.14;59.21;100984.08;1738966;80;21063;-49
2022/07/02 03:13:46;;;;;;;5.85;3.45;;;;;;;21.13;59.29;100983.73;1739747;81;21035;-48
2022/07/02 03:16:13;;;;;;;5.60;3.50;;;;;;;21.10;59.03;100997.50;1735173;80;21134;-48
2022/07/02 03:18:40;;;;;;;6.37;3.52;;;;;;;21.06;59.26;100995.66;1695263;82;21043;-49
2022/07/02 03:21:06;;;;;;;9.05;3.83;;;;;;;21.00;59.46;100999.54;1713931;83;21351;-48
2022/07/02 03:23:33;;;;;;;12.78;3.72;;;;;;;21.05;59.17;101007.38;1713372;82;21030;-49
2022/07/02 03:25:59;;;;;;;6.70;3.58;;;;;;;21.13;58.98;101014.51;1749686;80;21081;-49
2022/07/02 03:28:26;;;;;;;7.33;4.25;;;;;;;21.18;58.74;101014.81;1747337;80;21124;-48
2022/07/02 03:30:52;;;;;;;9.35;3.42;;;;;;;21.20;58.92;101004.78;1742871;80;21186;-49
2022/07/02 03:33:19;;;;;;;7.03;3.75;;;;;;;21.23;58.29;101004.92;1748621;80;21102;-48
2022/07/02 03:35:47;;;;;;;6.60;3.72;;;;;;;21.24;58.21;101007.94;1702403;82;21097;-49
2022/07/02 03:38:14;;;;;;;6.10;3.77;;;;;;;21.25;58.37;101009.09;1713826;83;21105;-49
2022/07/02 03:40:40;;;;;;;8.20;4.45;;;;;;;21.26;58.76;101012.08;1707043;82;21120;-49
2022/07/02 03:43:06;;;;;;;6.03;3.60;;;;;;;21.26;58.23;101019.29;1727117;80;21065;-50
2022/07/02 03:45:33;;;;;;;6.42;4.00;;;;;;;21.28;57.95;101018.59;1739869;82;21044;-49
2022/07/02 03:48:00;;;;;;;9.23;4.10;;;;;;;21.29;57.85;101022.44;1740956;80;21536;-49
2022/07/02 03:50:26;;;;;;;6.42;3.72;;;;;;;21.28;57.93;101018.12;1739584;81;21624;-49
2022/07/02 03:52:53;;;;;;;6.62;3.37;;;;;;;21.27;57.97;101012.42;1721216;81;21132;-49
2022/07/02 03:55:20;;;;;;;6.40;3.95;;;;;;;21.25;58.33;101010.44;1738435;81;21467;-49
2022/07/02 03:57:46;;;;;;;7.50;4.30;;;;;;;21.27;58.29;101009.75;1742070;81;21086;-49
2022/07/02 04:00:16;;;;;;;6.62;3.90;;;;;;;21.26;58.23;101011.26;1741182;81;21064;-49
2022/07/02 04:02:43;;;;;;;6.67;4.35;;;;;;;21.25;58.37;101010.92;1724961;80;21043;-49
2022/07/02 04:05:10;;;;;;;7.40;4.10;;;;;;;21.27;58.27;101009.75;1736235;81;21062;-48
2022/07/02 04:07:36;;;;;;;5.03;3.15;;;;;;;21.37;58.17;101011.34;1734087;82;20985;-49
2022/07/02 04:10:05;;;;;;;5.85;3.50;;;;;;;21.46;58.19;101007.60;1696342;83;21047;-49
2022/07/02 04:12:33;;;;;;;5.90;3.98;;;;;;;21.51;58.39;101014.11;1700240;83;21011;-48
2022/07/02 04:15:00;;;;;;;5.90;3.67;;;;;;;21.54;58.08;101010.25;1699104;83;21102;-49
2022/07/02 04:17:26;;;;;;;6.80;3.75;;;;;;;21.55;57.74;101011.90;1686992;83;22118;-50
2022/07/02 04:19:53;;;;;;;7.87;4.00;;;;;;;21.55;57.63;101004.38;1696497;83;21086;-48
2022/07/02 04:22:20;;;;;;;6.40;3.80;;;;;;;21.56;57.87;101009.56;1709503;82;21503;-49
2022/07/02 04:24:46;;;;;;;5.50;3.80;;;;;;;21.55;57.54;101006.54;1696097;82;21075;-49
2022/07/02 04:27:13;;;;;;;7.33;4.08;;;;;;;21.58;57.59;101006.19;1695688;83;21054;-49
2022/07/02 04:29:39;;;;;;;6.45;4.05;;;;;;;21.60;57.61;101012.70;1705745;83;21141;-48
2022/07/02 04:32:07;;;;;;;6.87;4.40;;;;;;;21.59;57.94;101025.27;1723129;81;21043;-48
2022/07/02 04:34:34;;;;;;;6.65;4.00;;;;;;;21.60;58.04;101029.63;1713827;82;21039;-49
2022/07/02 04:37:04;;;;;;;8.85;3.90;;;;;;;21.61;57.95;101026.44;1731691;80;21051;-49
2022/07/02 04:39:31;;;;;;;7.20;4.28;;;;;;;21.61;57.99;101031.27;1735895;81;21074;-48
2022/07/02 04:41:58;;;;;;;7.83;4.17;;;;;;;21.64;58.24;101032.26;1733546;80;21122;-49
2022/07/02 04:44:25;;;;;;;6.92;4.55;;;;;;;21.76;57.87;101035.86;1740904;81;20996;-49
2022/07/02 04:46:52;;;;;;;10.55;4.10;;;;;;;21.84;57.73;101033.11;1727515;80;21035;-48
2022/07/02 04:49:19;;;;;;;7.97;4.08;;;;;;;21.89;57.48;101040.09;1738417;81;21065;-49
2022/07/02 04:51:45;;;;;;;8.98;4.03;;;;;;;21.93;57.61;101049.42;1738463;81;21048;-50
2022/07/02 04:54:12;;;;;;;8.40;4.33;;;;;;;21.96;57.50;101046.90;1738058;81;21279;-49
2022/07/02 04:56:39;;;;;;;6.75;4.03;;;;;;;21.99;57.65;101054.06;1735591;80;21095;-48
2022/07/02 04:59:05;;;;;;;9.70;4.15;;;;;;;22.03;57.58;101059.89;1734580;80;21122;-49
2022/07/02 05:01:32;;;;;;;8.90;3.83;;;;;;;22.02;57.64;101052.36;1741441;80;21000;-49
2022/07/02 05:03:59;;;;;;;6.70;3.45;;;;;;;22.05;57.40;101054.66;1726631;81;21070;-48
2022/07/02 05:06:26;;;;;;;7.78;3.80;;;;;;;22.08;57.07;101055.64;1733794;80;21249;-49
2022/07/02 05:08:52;;;;;;;5.37;3.20;;;;;;;22.14;57.24;101055.44;1739591;82;21042;-49
2022/07/02 05:11:20;;;;;;;5.65;3.47;;;;;;;22.19;57.35;101065.09;1731205;81;21067;-49
2022/07/02 05:13:47;;;;;;;7.35;3.55;;;;;;;22.24;56.57;101056.48;1742360;82;21055;-48
2022/07/02 05:16:15;;;;;;;7.70;3.42;;;;;;;22.30;56.62;101061.16;1741033;80;21102;-48
2022/07/02 05:18:42;;;;;;;6.35;3.60;;;;;;;22.35;56.17;101068.66;1725151;81;21511;-48
2022/07/02 05:21:08;;;;;;;7.37;3.62;;;;;;;22.34;55.42;101063.81;1732789;80;21032;-48
2022/07/02 05:23:35;;;;;;;7.95;3.10;;;;;;;22.35;55.27;101062.77;1727814;82;21090;-49
2022/07/02 05:26:02;;;;;;;6.53;3.45;;;;;;;22.38;55.11;101062.93;1734311;81;21075;-48
2022/07/02 05:28:28;;;;;;;8.23;3.58;;;;;;;22.41;54.76;101063.39;1704302;82;21071;-50
2022/07/02 05:30:55;;;;;;;5.85;3.35;;;;;;;22.47;54.83;101059.64;1702458;83;22014;-49
2022/07/02 05:33:21;;;;;;;9.65;3.10;;;;;;;22.53;54.51;101058.91;1704918;83;21046;-48
2022/07/02 05:35:48;;;;;;;6.67;3.20;;;;;;;22.58;53.99;101060.53;1699338;82;21050;-47
2022/07/02 05:38:14;;;;;;;7.22;3.15;;;;;;;22.65;53.83;101062.78;1739857;82;21043;-48
2022/07/02 05:40:41;;;;;;;7.10;3.25;;;;;;;22.72;53.44;101070.92;1736855;80;21082;-48
2022/07/02 05:43:07;;;;;;;8.03;2.92;;;;;;;22.77;53.40;101067.98;1732888;82;22187;-47
2022/07/02 05:45:35;;;;;;;8.28;3.30;;;;;;;22.82;53.40;101066.92;1741377;80;21075;-47
2022/07/02 05:48:02;;;;;;;5.92;3.25;;;;;;;22.87;52.93;101063.69;1738892;80;21138;-48
2022/07/02 05:50:29;;;;;;;6.42;3.42;;;;;;;22.94;52.72;101067.27;1738147;80;21564;-48
2022/07/02 05:52:56;;;;;;;5.42;2.72;;;;;;;23.02;52.63;101070.89;1720853;80;21064;-47
2022/07/02 05:55:24;;;;;;;5.67;2.90;;;;;;;23.08;52.06;101071.00;1736447;81;21074;-48
2022/07/02 05:57:51;;;;;;;5.67;2.70;;;;;;;23.15;51.73;101071.90;1692253;83;21063;-48
2022/07/02 06:00:18;;;;;;;8.23;2.60;;;;;;;23.20;51.77;101071.34;1687713;84;21513;-48
2022/07/02 06:02:44;;;;;;;7.00;2.90;;;;;;;23.25;51.68;101069.41;1724681;81;21590;-48
2022/07/02 06:07:56;;;;;;;10.47;3.10;;;;;;;23.34;51.12;101073.66;1740033;80;21137;-47
2022/07/02 06:10:24;;;;;;;6.05;3.15;;;;;;;23.38;50.61;101076.27;1742455;80;21218;-48
2022/07/02 06:12:52;;;;;;;6.40;3.17;;;;;;;23.41;50.98;101079.91;1741334;81;21166;-48
2022/07/02 06:15:19;;;;;;;6.97;2.90;;;;;;;23.45;50.67;101087.93;1741564;82;21107;-47
2022/07/02 06:17:46;;;;;;;6.28;2.52;;;;;;;23.50;50.50;101084.65;1730547;80;21047;-47
2022/07/02 06:20:13;;;;;;;5.97;2.87;;;;;;;23.56;51.09;101089.27;1732408;80;21171;-47
2022/07/02 06:22:41;;;;;;;6.70;3.20;;;;;;;23.59;50.82;101090.23;1734261;81;21067;-48
2022/07/02 06:25:08;;;;;;;9.50;3.72;;;;;;;23.67;51.03;101097.31;1740167;80;21055;-48
2022/07/02 06:27:35;;;;;;;12.50;3.10;;;;;;;23.73;50.55;101096.55;1737545;81;21442;-47
2022/07/02 06:30:03;;;;;;;6.78;2.83;;;;;;;23.79;50.27;101100.31;1736863;81;21102;-47
2022/07/02 06:32:30;;;;;;;7.28;3.45;;;;;;;23.83;50.31;101097.61;1741499;82;21141;-47
2022/07/02 06:34:57;;;;;;;7.47;3.02;;;;;;;23.88;50.13;101091.97;1726009;81;21098;-47
2022/07/02 06:37:24;;;;;;;9.13;2.92;;;;;;;23.91;49.89;101092.93;1693176;83;21047;-47
2022/07/02 06:39:51;;;;;;;5.30;2.90;;;;;;;23.97;49.81;101099.89;1706625;83;21118;-47
2022/07/02 06:42:22;;;;;;;6.12;3.15;;;;;;;24.03;50.22;101103.16;1691404;83;21066;-49
2022/07/02 06:44:52;;;;;;;6.75;3.20;;;;;;;24.09;49.67;101101.02;1743760;81;21771;-48
2022/07/02 06:47:19;;;;;;;5.15;2.70;;;;;;;24.11;48.90;101107.88;1751771;80;21486;-48
2022/07/02 06:49:46;;;;;;;6.00;2.70;;;;;;;24.17;49.42;101113.50;1755250;81;21407;-48
2022/07/02 06:52:13;;;;;;;5.30;2.62;;;;;;;24.20;48.92;101110.43;1740008;80;21023;-48
2022/07/02 06:54:40;;;;;;;6.53;3.12;;;;;;;24.22;48.70;101102.47;1703064;83;21065;-49
2022/07/02 06:57:06;;;;;;;5.83;2.98;;;;;;;24.28;48.90;101107.08;1706626;82;21155;-47
2022/07/02 06:59:33;;;;;;;8.20;3.08;;;;;;;24.36;49.08;101107.95;1717756;83;21042;-48
2022/07/02 07:02:00;;;;;;;10.72;2.87;;;;;;;24.40;48.56;101114.09;1718737;82;21409;-48
2022/07/02 07:04:29;;;;;;;8.75;2.27;;;;;;;24.46;48.07;101117.34;1710002;82;21138;-48
2022/07/02 07:06:56;;;;;;;8.50;2.80;;;;;;;24.51;47.40;101112.73;1703384;82;21113;-48
2022/07/02 07:09:28;;;;;;;6.75;2.87;;;;;;;24.54;47.75;101102.89;1712661;82;21134;-48
2022/07/02 07:11:54;;;;;;;6.12;2.80;;;;;;;24.59;47.58;101109.06;1715076;83;21097;-48
2022/07/02 07:14:21;;;;;;;6.42;3.15;;;;;;;24.62;47.15;101107.33;1692041;84;21090;-49
2022/07/02 07:16:47;;;;;;;5.25;2.65;;;;;;;24.65;46.15;101110.97;1693433;82;21063;-48
2022/07/02 07:19:14;;;;;;;5.78;2.65;;;;;;;24.70;46.73;101113.89;1695414;84;21113;-48
2022/07/02 07:21:41;;;;;;;9.78;2.95;;;;;;;24.75;46.88;101109.27;1695023;82;21552;-49
2022/07/02 07:24:08;;;;;;;5.20;2.80;;;;;;;24.79;46.81;101105.14;1717256;83;21568;-48
2022/07/02 07:26:37;;;;;;;6.08;2.92;;;;;;;24.85;47.36;101113.77;1713710;82;21094;-48
2022/07/02 07:29:06;;;;;;;4.78;2.70;;;;;;;24.93;46.62;101118.14;1717111;82;21086;-50
2022/07/02 07:31:34;;;;;;;8.00;2.67;;;;;;;24.98;46.21;101117.88;1694069;82;21194;-48
2022/07/02 07:34:01;;;;;;;5.95;2.62;;;;;;;25.01;46.41;101118.80;1689054;84;21087;-48
2022/07/02 07:36:28;;;;;;;5.40;2.50;;;;;;;25.04;46.17;101108.16;1716553;82;21484;-48
2022/07/02 07:38:55;;;;;;;7.75;3.12;;;;;;;25.10;46.69;101114.59;1715366;83;21042;-48
2022/07/02 07:41:22;;;;;;;8.48;3.05;;;;;;;25.14;46.11;101118.03;1696090;84;21109;-48
2022/07/02 07:43:49;;;;;;;8.35;3.52;;;;;;;25.21;45.46;101111.32;1679382;84;21077;-48
2022/07/02 07:46:16;;;;;;;5.47;2.80;;;;;;;25.26;45.09;101108.88;1676537;83;21212;-48
2022/07/02 07:48:42;;;;;;;8.55;2.50;;;;;;;25.31;45.24;101105.06;1747236;80;21048;-48
2022/07/02 07:51:09;;;;;;;6.10;3.22;;;;;;;25.36;45.18;101116.06;1746985;80;21122;-48
2022/07/02 07:53:36;;;;;;;4.92;2.72;;;;;;;25.41;45.04;101111.41;1747563;81;21061;-47
2022/07/02 07:56:03;;;;;;;6.53;3.35;;;;;;;25.48;44.81;101108.73;1709786;82;21027;-48
2022/07/02 07:58:30;;;;;;;5.47;2.65;;;;;;;25.51;44.63;101112.38;1700864;83;21089;-48
2022/07/02 08:00:57;;;;;;;6.45;2.80;;;;;;;25.54;45.16;101118.19;1703575;82;21098;-48
2022/07/02 08:03:23;;;;;;;5.65;2.70;;;;;;;25.59;44.47;101124.31;1696353;83;21075;-47
2022/07/02 08:05:53;;;;;;;7.75;3.00;;;;;;;25.63;44.26;101119.34;1687033;82;21134;-48
2022/07/02 08:08:18;;;;;;;6.15;3.17;;;;;;;25.65;44.65;101120.78;1687876;82;21668;-48
2022/07/02 08:10:45;;;;;;;5.30;2.77;;;;;;;25.65;44.56;101122.13;1701700;83;22786;-48
2022/07/02 08:13:11;;;;;;;5.15;2.70;;;;;;;25.69;45.18;101129.31;1699658;83;21560;-48
2022/07/02 08:15:39;;;;;;;17.87;3.80;;;;;;;25.73;44.64;101124.63;1701569;83;21012;-48
2022/07/02 08:18:06;;;;;;;5.25;2.75;;;;;;;25.78;44.66;101125.37;1690072;82;21491;-47
2022/07/02 08:20:32;;;;;;;9.30;2.95;;;;;;;25.82;45.15;101127.95;1685486;82;21717;-48
2022/07/02 08:23:00;;;;;;;10.18;2.80;;;;;;;25.84;44.16;101123.22;1704411;82;22067;-47
2022/07/02 08:25:27;;;;;;;6.42;3.12;;;;;;;25.84;44.62;101121.86;1698760;83;21012;-48
2022/07/02 08:27:53;;;;;;;9.00;2.50;;;;;;;25.85;44.28;101125.38;1686842;83;21565;-48
2022/07/02 08:30:20;;;;;;;4.78;2.27;;;;;;;25.87;44.32;101131.39;1702856;84;21693;-48
2022/07/02 08:32:46;;;;;;;4.33;2.05;;;;;;;25.93;43.19;101134.62;1699444;82;21078;-48
2022/07/02 08:35:13;;;;;;;7.50;2.60;;;;;;;25.99;42.96;101124.89;1696396;83;21263;-48
2022/07/02 08:37:39;;;;;;;5.58;2.10;;;;;;;26.04;42.84;101124.61;1703286;83;21115;-48
2022/07/02 08:40:08;;;;;;;6.28;2.52;;;;;;;26.12;42.99;101128.41;1699895;84;21095;-48
2022/07/02 08:42:35;;;;;;;7.97;2.55;;;;;;;26.16;42.77;101128.00;1746392;80;21133;-48
2022/07/02 08:45:03;;;;;;;5.25;2.55;;;;;;;26.21;43.26;101132.25;1749454;80;21525;-48
2022/07/02 08:47:31;;;;;;;8.95;2.60;;;;;;;26.28;42.39;101132.58;1751566;80;21418;-49
2022/07/02 08:49:58;;;;;;;4.58;2.20;;;;;;;26.36;42.76;101131.55;1753356;81;21055;-48
2022/07/02 08:52:26;;;;;;;6.47;2.12;;;;;;;26.43;42.61;101132.35;1732493;80;21018;-49
2022/07/02 08:54:54;;;;;;;5.95;2.40;;;;;;;26.50;42.08;101134.52;1709963;82;21057;-48
2022/07/02 08:57:21;;;;;;;7.85;2.20;;;;;;;26.55;41.20;101135.23;1723230;82;21057;-47
2022/07/02 08:59:48;;;;;;;4.37;2.20;;;;;;;26.59;41.07;101140.52;1720332;82;21115;-48
2022/07/02 09:02:15;;;;;;;4.70;2.17;;;;;;;26.65;40.86;101140.23;1717581;82;21019;-48
2022/07/02 09:04:46;;;;;;;5.60;2.50;;;;;;;26.68;40.18;101129.03;1716974;82;21545;-50
2022/07/02 09:07:15;;;;;;;7.00;2.15;;;;;;;26.72;39.49;101138.34;1727652;81;21065;-48
2022/07/02 09:09:43;;;;;;;5.42;2.83;;;;;;;26.75;39.88;101131.67;1711300;82;21537;-48
2022/07/02 09:12:14;;;;;;;6.10;2.60;;;;;;;26.74;40.36;101130.04;1716443;82;21729;-48
2022/07/02 09:14:42;;;;;;;7.00;2.50;;;;;;;26.74;40.39;101133.56;1706759;83;21544;-48
2022/07/02 09:17:10;;;;;;;4.30;2.10;;;;;;;26.77;40.54;101134.48;1711650;82;21117;-48
2022/07/02 09:19:37;;;;;;;7.12;2.08;;;;;;;26.83;40.11;101132.80;1697182;82;21057;-48
2022/07/02 09:22:05;;;;;;;4.78;2.22;;;;;;;26.91;38.77;101131.75;1717520;82;21015;-48
2022/07/02 09:24:35;;;;;;;8.20;2.52;;;;;;;26.98;38.75;101136.09;1715325;83;21142;-48
2022/07/02 09:27:04;;;;;;;8.00;2.20;;;;;;;27.08;39.99;101136.97;1717346;82;21042;-48
2022/07/02 09:29:50;;;;;;;6.03;2.27;;;;;;;27.16;40.11;101131.33;1716407;83;21050;-48
2022/07/02 09:32:17;;;;;;;;;;;;;;;27.25;38.31;101135.45;1716415;82;21081;-48
2022/07/02 09:34:45;;;;;;;6.92;2.52;;;;;;;27.31;38.29;101137.02;1696350;84;20188;-47
2022/07/02 09:37:21;;;;;;;6.03;2.20;;;;;;;27.35;37.85;101135.53;1688233;84;21569;-48
2022/07/02 09:39:48;;;;;;;7.10;2.02;;;;;;;27.39;37.25;101140.30;1692640;84;21063;-49
2022/07/02 09:42:33;;;;;;;3.95;2.05;;;;;;;27.43;37.60;101136.62;1690924;84;21119;-48
2022/07/02 09:45:02;;;;;;;5.80;2.40;;;;;;;27.48;36.83;101141.39;1697953;84;21807;-47
2022/07/02 09:47:48;;;;;;;5.95;2.35;;;;;;;27.51;35.99;101140.97;1692880;84;21076;-47
2022/07/02 09:50:12;;;;;;;6.47;2.52;;;;;;;27.53;35.55;101124.00;1691186;84;21388;-47
2022/07/02 09:52:55;;;;;;;6.03;2.02;;;;;;;27.54;35.00;101134.59;1706294;83;21062;-47
2022/07/02 09:55:27;;;;;;;5.40;2.05;;;;;;;27.53;35.65;101130.77;1706278;83;21125;-47
2022/07/02 09:57:58;;;;;;;5.22;2.20;;;;;;;27.55;35.12;101129.48;1700038;83;21559;-47
2022/07/02 10:00:28;;;;;;;6.80;2.58;;;;;;;27.56;34.39;101128.45;1702600;83;21064;-47
2022/07/02 10:02:56;;;;;;;5.05;2.12;;;;;;;27.56;34.62;101127.09;1689581;83;21761;-48
2022/07/02 10:05:24;;;;;;;5.28;1.98;;;;;;;27.57;35.43;101125.20;1689924;83;21431;-47
2022/07/02 10:07:56;;;;;;;4.47;2.10;;;;;;;27.59;34.54;101125.31;1687781;83;21015;-50
2022/07/02 10:10:41;;;;;;;8.63;2.80;;;;;;;27.63;33.45;101115.42;1701170;82;21124;-47
2022/07/02 10:13:10;;;;;;;4.53;2.12;;;;;;;27.66;34.81;101125.80;1702052;83;21290;-47
2022/07/02 10:15:39;;;;;;;3.55;1.85;;;;;;;27.68;33.64;101125.05;1702718;84;21141;-47
2022/07/02 10:18:06;;;;;;;6.35;2.10;;;;;;;27.71;33.42;101124.63;1680081;83;21542;-47
2022/07/02 10:20:34;;;;;;;4.62;2.08;;;;;;;27.71;33.28;101126.80;1695142;84;21004;-46
2022/07/02 10:23:03;;;;;;;5.95;2.15;;;;;;;27.74;34.09;101129.06;1686063;83;21079;-48
2022/07/02 10:25:31;;;;;;;4.25;2.10;;;;;;;27.77;33.82;101123.23;1704250;82;21550;-47
2022/07/02 10:27:57;;;;;;;5.35;2.00;;;;;;;27.82;33.06;101121.19;1697663;83;21131;-47
2022/07/02 10:30:28;;;;;;;5.55;2.20;;;;;;;27.85;32.72;101126.70;1683283;82;21012;-47
2022/07/02 10:33:38;;;;;;;4.05;1.90;;;;;;;27.88;33.91;101126.27;1688017;83;21015;-47
2022/07/02 10:36:06;;;;;;;6.17;1.90;;;;;;;27.93;32.73;101127.28;1597407;87;21847;-47
2022/07/02 10:38:37;;;;;;;6.08;2.02;;;;;;;27.95;31.97;101121.13;1670013;83;21062;-48
2022/07/02 10:41:03;;;;;;;7.83;2.50;;;;;;;27.93;32.85;101123.23;1700767;83;21119;-47
2022/07/02 10:43:34;;;;;;;5.45;1.90;;;;;;;27.95;32.75;101121.13;1695794;83;21060;-47
2022/07/02 10:46:09;;;;;;;6.70;2.15;;;;;;;28.02;33.46;101116.19;1704169;83;21035;-47
2022/07/02 10:48:49;;;;;;;4.40;2.15;;;;;;;28.09;32.52;101116.45;1700726;82;21667;-48
2022/07/02 10:51:29;;;;;;;6.37;2.10;;;;;;;28.12;31.50;101116.52;1708458;83;20995;-48
2022/07/02 10:54:03;;;;;;;5.97;2.00;;;;;;;28.16;31.94;101119.09;1749716;82;21577;-47
2022/07/02 10:56:33;;;;;;;5.33;1.95;;;;;;;28.21;31.91;101116.55;1743786;82;21039;-47
2022/07/02 10:58:59;;;;;;;5.17;2.10;;;;;;;28.21;30.71;101114.35;1727088;80;21117;-47
2022/07/02 11:01:26;;;;;;;5.33;1.80;;;;;;;28.20;31.30;101108.66;1745769;81;21051;-47
2022/07/02 11:03:58;;;;;;;3.95;1.75;;;;;;;28.14;30.79;101108.50;1748407;82;20997;-48
2022/07/02 11:06:30;;;;;;;4.85;2.25;;;;;;;28.16;32.71;101111.80;1697163;82;21143;-48
2022/07/02 11:09:04;;;;;;;3.83;1.75;;;;;;;28.24;32.02;101105.26;1739069;80;21111;-48
2022/07/02 11:11:36;;;;;;;4.20;1.90;;;;;;;28.31;31.03;101097.92;1748185;81;21482;-48
2022/07/02 11:14:16;;;;;;;4.42;1.72;;;;;;;28.39;31.50;101091.91;1740686;80;21102;-47
2022/07/02 11:16:48;;;;;;;3.85;1.70;;;;;;;28.48;31.78;101094.11;1748363;80;21042;-48
2022/07/02 11:19:22;;;;;;;5.60;2.20;;;;;;;28.55;31.60;101100.80;1747762;80;21087;-47
2022/07/02 11:21:50;;;;;;;8.70;1.90;;;;;;;28.61;30.67;101093.14;1748964;82;21052;-47
2022/07/02 11:24:22;;;;;;;5.80;2.47;;;;;;;28.64;31.29;101084.58;1743929;80;21083;-47
2022/07/02 11:26:48;;;;;;;5.10;1.75;;;;;;;28.70;30.21;101080.97;1747851;80;21132;-47
2022/07/02 11:29:15;;;;;;;4.42;1.62;;;;;;;28.67;30.92;101079.25;1706572;82;21081;-47
2022/07/02 11:31:48;;;;;;;9.83;2.45;;;;;;;28.64;31.09;101087.28;1703641;83;21137;-47
2022/07/02 11:34:22;;;;;;;6.83;1.90;;;;;;;28.68;32.45;101084.95;1699791;83;21071;-47